This is the latest recevied weather packets stored in our database for station/object KB2M. If no packets are shown the sender has not sent any weather packets the latest 10 day(s).
| Time | Temp. | Humidity | Pressure | Rain* | Wind** | Luminosity | Snow |
|---|---|---|---|---|---|---|---|
| 1787774500 | 24.44° C | 92% | 1017.6 hPa | 12.7 mm | - | - | - |
| 1787773870 | 24.44° C | 89% | 1017.6 hPa | 12.7 mm | - | - | - |
| 1787773240 | 24.44° C | 86% | 1018.2 hPa | 12.45 mm | - | - | - |
| 1787772640 | 23.89° C | 87% | 1017.9 hPa | 12.45 mm | - | - | - |
| 1787772040 | 23.33° C | 86% | 1018.2 hPa | 10.92 mm | - | - | - |
| 1787771440 | 27.78° C | 82% | 1018.6 hPa | 2.03 mm | - | - | - |
| 1787770810 | 28.33° C | 78% | 1017.6 hPa | 0 mm | - | - | - |
| 1787770210 | 29.44° C | 75% | 1017.2 hPa | 0 mm | - | - | - |
| 1787769610 | 29.44° C | 73% | 1017.6 hPa | 0 mm | - | - | - |
| 1787768980 | 29.44° C | 74% | 1017.9 hPa | 0 mm | - | - | - |
| 1787768350 | 30° C | 74% | 1017.6 hPa | 0 mm | - | - | - |
| 1787767750 | 29.44° C | 75% | 1017.9 hPa | 0 mm | - | - | - |
| 1787767120 | 29.44° C | 75% | 1017.9 hPa | 0 mm | - | - | - |
| 1787766520 | 28.89° C | 76% | 1018.2 hPa | 0 mm | - | - | - |
| 1787765890 | 28.89° C | 76% | 1018.2 hPa | 0 mm | - | - | - |
| 1787765290 | 28.89° C | 77% | 1018.2 hPa | 0 mm | - | - | - |
| 1787764660 | 28.33° C | 78% | 1018.6 hPa | 0 mm | - | - | - |
| 1787764060 | 28.89° C | 76% | 1018.9 hPa | 0 mm | - | - | - |
| 1787763430 | 28.89° C | 75% | 1019.3 hPa | 0 mm | - | - | - |
| 1787762830 | 28.33° C | 77% | 1019.6 hPa | 0 mm | - | - | - |
| 1787762200 | 28.33° C | 77% | 1019.6 hPa | 0 mm | - | - | - |
| 1787761600 | 28.33° C | 77% | 1019.6 hPa | 0 mm | - | - | - |
| 1787760970 | 27.78° C | 80% | 1019.6 hPa | 0 mm | - | - | - |
| 1787760370 | 27.22° C | 80% | 1019.6 hPa | 0 mm | - | - | - |
| 1787759770 | 27.22° C | 81% | 1019.6 hPa | 0 mm | - | - | - |
* Rain latest hour (hover to see other rain measurements)
** Current wind speed in m/s (hover to see current wind gust speed)